sensor_id;sensor_type;location;lat;lon;timestamp;P1;durP1;ratioP1;P2;durP2;ratioP2
49514;SDS011;35415;47.870;16.058;2022-07-29T00:00:09;6.63;;;4.45;;
49514;SDS011;35415;47.870;16.058;2022-07-29T00:02:37;5.18;;;4.32;;
49514;SDS011;35415;47.870;16.058;2022-07-29T00:05:04;4.97;;;4.47;;
49514;SDS011;35415;47.870;16.058;2022-07-29T00:07:33;7.00;;;4.50;;
49514;SDS011;35415;47.870;16.058;2022-07-29T00:10:00;5.97;;;4.55;;
49514;SDS011;35415;47.870;16.058;2022-07-29T00:12:27;5.57;;;4.53;;
49514;SDS011;35415;47.870;16.058;2022-07-29T00:14:54;6.22;;;3.90;;
49514;SDS011;35415;47.870;16.058;2022-07-29T00:17:22;12.02;;;5.32;;
49514;SDS011;35415;47.870;16.058;2022-07-29T00:19:49;4.80;;;4.07;;
49514;SDS011;35415;47.870;16.058;2022-07-29T00:22:16;5.88;;;4.00;;
49514;SDS011;35415;47.870;16.058;2022-07-29T00:24:45;5.75;;;4.28;;
49514;SDS011;35415;47.870;16.058;2022-07-29T00:27:14;8.77;;;4.68;;
49514;SDS011;35415;47.870;16.058;2022-07-29T00:29:41;4.68;;;3.85;;
49514;SDS011;35415;47.870;16.058;2022-07-29T00:32:08;4.97;;;4.05;;
49514;SDS011;35415;47.870;16.058;2022-07-29T00:34:35;6.50;;;4.22;;
49514;SDS011;35415;47.870;16.058;2022-07-29T00:37:19;5.57;;;4.97;;
49514;SDS011;35415;47.870;16.058;2022-07-29T00:39:50;5.38;;;4.40;;
49514;SDS011;35415;47.870;16.058;2022-07-29T00:42:17;5.28;;;4.70;;
49514;SDS011;35415;47.870;16.058;2022-07-29T00:44:45;5.57;;;4.47;;
49514;SDS011;35415;47.870;16.058;2022-07-29T00:47:12;4.57;;;3.92;;
49514;SDS011;35415;47.870;16.058;2022-07-29T00:49:39;7.45;;;4.45;;
49514;SDS011;35415;47.870;16.058;2022-07-29T00:52:08;4.72;;;3.90;;
49514;SDS011;35415;47.870;16.058;2022-07-29T00:54:37;5.13;;;4.38;;
49514;SDS011;35415;47.870;16.058;2022-07-29T00:57:07;6.10;;;4.50;;
49514;SDS011;35415;47.870;16.058;2022-07-29T00:59:34;5.82;;;4.78;;
49514;SDS011;35415;47.870;16.058;2022-07-29T01:02:02;4.97;;;4.57;;
49514;SDS011;35415;47.870;16.058;2022-07-29T01:04:30;4.95;;;4.55;;
49514;SDS011;35415;47.870;16.058;2022-07-29T01:06:58;5.78;;;4.88;;
49514;SDS011;35415;47.870;16.058;2022-07-29T01:09:27;5.88;;;4.18;;
49514;SDS011;35415;47.870;16.058;2022-07-29T01:11:54;4.95;;;4.45;;
49514;SDS011;35415;47.870;16.058;2022-07-29T01:14:23;4.65;;;4.07;;
49514;SDS011;35415;47.870;16.058;2022-07-29T01:16:52;5.35;;;4.55;;
49514;SDS011;35415;47.870;16.058;2022-07-29T01:19:41;8.77;;;5.18;;
49514;SDS011;35415;47.870;16.058;2022-07-29T01:22:18;5.20;;;4.32;;
49514;SDS011;35415;47.870;16.058;2022-07-29T01:25:00;6.60;;;4.57;;
49514;SDS011;35415;47.870;16.058;2022-07-29T01:27:42;6.53;;;4.38;;
49514;SDS011;35415;47.870;16.058;2022-07-29T01:30:20;9.95;;;4.72;;
49514;SDS011;35415;47.870;16.058;2022-07-29T01:32:49;5.55;;;4.75;;
49514;SDS011;35415;47.870;16.058;2022-07-29T01:35:22;5.97;;;5.03;;
49514;SDS011;35415;47.870;16.058;2022-07-29T01:37:55;7.47;;;4.43;;
49514;SDS011;35415;47.870;16.058;2022-07-29T01:40:28;6.13;;;4.72;;
49514;SDS011;35415;47.870;16.058;2022-07-29T01:43:02;6.35;;;4.50;;
49514;SDS011;35415;47.870;16.058;2022-07-29T01:45:38;5.22;;;4.60;;
49514;SDS011;35415;47.870;16.058;2022-07-29T01:48:11;5.78;;;4.55;;
49514;SDS011;35415;47.870;16.058;2022-07-29T01:50:44;5.97;;;4.88;;
49514;SDS011;35415;47.870;16.058;2022-07-29T01:53:16;6.07;;;4.65;;
49514;SDS011;35415;47.870;16.058;2022-07-29T01:55:51;5.72;;;4.60;;
49514;SDS011;35415;47.870;16.058;2022-07-29T01:58:20;5.53;;;4.55;;
49514;SDS011;35415;47.870;16.058;2022-07-29T02:00:51;7.43;;;4.72;;
49514;SDS011;35415;47.870;16.058;2022-07-29T02:03:20;6.15;;;4.80;;
49514;SDS011;35415;47.870;16.058;2022-07-29T02:05:48;4.78;;;4.35;;
49514;SDS011;35415;47.870;16.058;2022-07-29T02:08:17;6.38;;;4.90;;
49514;SDS011;35415;47.870;16.058;2022-07-29T02:10:46;6.55;;;4.82;;
49514;SDS011;35415;47.870;16.058;2022-07-29T02:13:15;5.05;;;4.55;;
49514;SDS011;35415;47.870;16.058;2022-07-29T02:15:44;7.25;;;4.65;;
49514;SDS011;35415;47.870;16.058;2022-07-29T02:18:15;5.70;;;5.07;;
49514;SDS011;35415;47.870;16.058;2022-07-29T02:20:44;6.10;;;5.37;;
49514;SDS011;35415;47.870;16.058;2022-07-29T02:23:16;5.03;;;4.53;;
49514;SDS011;35415;47.870;16.058;2022-07-29T02:25:46;6.90;;;4.65;;
49514;SDS011;35415;47.870;16.058;2022-07-29T02:28:15;5.55;;;4.78;;
49514;SDS011;35415;47.870;16.058;2022-07-29T02:30:44;6.30;;;5.18;;
49514;SDS011;35415;47.870;16.058;2022-07-29T02:33:14;5.63;;;4.57;;
49514;SDS011;35415;47.870;16.058;2022-07-29T02:35:43;5.75;;;4.78;;
49514;SDS011;35415;47.870;16.058;2022-07-29T02:38:13;6.32;;;4.65;;
49514;SDS011;35415;47.870;16.058;2022-07-29T02:41:00;5.45;;;4.72;;
49514;SDS011;35415;47.870;16.058;2022-07-29T02:43:30;8.15;;;5.03;;
49514;SDS011;35415;47.870;16.058;2022-07-29T02:45:59;9.98;;;6.68;;
49514;SDS011;35415;47.870;16.058;2022-07-29T02:48:33;7.75;;;5.20;;
49514;SDS011;35415;47.870;16.058;2022-07-29T02:51:05;9.05;;;5.03;;
49514;SDS011;35415;47.870;16.058;2022-07-29T02:53:37;7.20;;;5.00;;
49514;SDS011;35415;47.870;16.058;2022-07-29T02:56:09;5.28;;;4.60;;
49514;SDS011;35415;47.870;16.058;2022-07-29T02:58:42;5.45;;;4.95;;
49514;SDS011;35415;47.870;16.058;2022-07-29T03:01:14;7.90;;;4.95;;
49514;SDS011;35415;47.870;16.058;2022-07-29T03:03:45;14.10;;;6.93;;
49514;SDS011;35415;47.870;16.058;2022-07-29T03:06:15;5.93;;;4.65;;
49514;SDS011;35415;47.870;16.058;2022-07-29T03:08:43;6.85;;;5.60;;
49514;SDS011;35415;47.870;16.058;2022-07-29T03:11:12;7.90;;;5.60;;
49514;SDS011;35415;47.870;16.058;2022-07-29T03:13:41;7.30;;;4.93;;
49514;SDS011;35415;47.870;16.058;2022-07-29T03:16:09;6.10;;;4.93;;
49514;SDS011;35415;47.870;16.058;2022-07-29T03:18:38;5.50;;;5.00;;
49514;SDS011;35415;47.870;16.058;2022-07-29T03:21:07;5.53;;;4.97;;
49514;SDS011;35415;47.870;16.058;2022-07-29T03:23:34;11.23;;;4.95;;
49514;SDS011;35415;47.870;16.058;2022-07-29T03:26:01;6.05;;;4.88;;
49514;SDS011;35415;47.870;16.058;2022-07-29T03:28:29;6.60;;;4.40;;
49514;SDS011;35415;47.870;16.058;2022-07-29T03:30:56;5.07;;;4.60;;
49514;SDS011;35415;47.870;16.058;2022-07-29T03:33:23;7.50;;;5.03;;
49514;SDS011;35415;47.870;16.058;2022-07-29T03:35:50;5.57;;;4.93;;
49514;SDS011;35415;47.870;16.058;2022-07-29T03:38:18;8.10;;;5.82;;
49514;SDS011;35415;47.870;16.058;2022-07-29T03:40:48;5.03;;;4.35;;
49514;SDS011;35415;47.870;16.058;2022-07-29T03:45:47;4.97;;;4.47;;
49514;SDS011;35415;47.870;16.058;2022-07-29T03:48:18;6.85;;;5.57;;
49514;SDS011;35415;47.870;16.058;2022-07-29T03:50:47;5.22;;;4.43;;
49514;SDS011;35415;47.870;16.058;2022-07-29T03:53:16;6.53;;;5.10;;
49514;SDS011;35415;47.870;16.058;2022-07-29T03:55:47;8.70;;;5.00;;
49514;SDS011;35415;47.870;16.058;2022-07-29T03:58:18;8.65;;;4.70;;
49514;SDS011;35415;47.870;16.058;2022-07-29T04:00:46;6.53;;;5.15;;
49514;SDS011;35415;47.870;16.058;2022-07-29T04:03:14;7.28;;;5.32;;
49514;SDS011;35415;47.870;16.058;2022-07-29T04:05:42;6.40;;;4.93;;
49514;SDS011;35415;47.870;16.058;2022-07-29T04:08:09;5.57;;;5.05;;
49514;SDS011;35415;47.870;16.058;2022-07-29T04:10:36;5.85;;;5.25;;
49514;SDS011;35415;47.870;16.058;2022-07-29T04:13:06;8.15;;;5.05;;
49514;SDS011;35415;47.870;16.058;2022-07-29T04:15:33;6.60;;;4.93;;
49514;SDS011;35415;47.870;16.058;2022-07-29T04:17:59;5.47;;;4.97;;
49514;SDS011;35415;47.870;16.058;2022-07-29T04:20:26;5.78;;;4.60;;
49514;SDS011;35415;47.870;16.058;2022-07-29T04:22:54;5.88;;;5.28;;
49514;SDS011;35415;47.870;16.058;2022-07-29T04:25:21;6.70;;;4.93;;
49514;SDS011;35415;47.870;16.058;2022-07-29T04:27:48;6.55;;;5.57;;
49514;SDS011;35415;47.870;16.058;2022-07-29T04:30:28;5.88;;;4.93;;
49514;SDS011;35415;47.870;16.058;2022-07-29T04:32:56;5.22;;;4.72;;
49514;SDS011;35415;47.870;16.058;2022-07-29T04:35:23;6.28;;;4.82;;
49514;SDS011;35415;47.870;16.058;2022-07-29T04:37:50;6.22;;;4.60;;
49514;SDS011;35415;47.870;16.058;2022-07-29T04:40:18;5.78;;;5.18;;
49514;SDS011;35415;47.870;16.058;2022-07-29T04:42:45;5.88;;;4.75;;
49514;SDS011;35415;47.870;16.058;2022-07-29T04:45:13;7.72;;;4.88;;
49514;SDS011;35415;47.870;16.058;2022-07-29T04:47:41;5.38;;;4.88;;
49514;SDS011;35415;47.870;16.058;2022-07-29T04:50:08;8.02;;;5.30;;
49514;SDS011;35415;47.870;16.058;2022-07-29T04:52:36;9.55;;;5.05;;
49514;SDS011;35415;47.870;16.058;2022-07-29T04:55:04;5.13;;;4.72;;
49514;SDS011;35415;47.870;16.058;2022-07-29T04:57:32;5.80;;;4.60;;
49514;SDS011;35415;47.870;16.058;2022-07-29T04:59:59;5.93;;;5.05;;
49514;SDS011;35415;47.870;16.058;2022-07-29T05:02:26;5.80;;;4.63;;
49514;SDS011;35415;47.870;16.058;2022-07-29T05:04:55;5.35;;;4.50;;
49514;SDS011;35415;47.870;16.058;2022-07-29T05:07:22;5.28;;;4.78;;
49514;SDS011;35415;47.870;16.058;2022-07-29T05:09:49;6.25;;;5.18;;
49514;SDS011;35415;47.870;16.058;2022-07-29T05:12:16;5.28;;;4.78;;
49514;SDS011;35415;47.870;16.058;2022-07-29T05:14:43;5.22;;;4.70;;
49514;SDS011;35415;47.870;16.058;2022-07-29T05:17:10;4.70;;;4.30;;
49514;SDS011;35415;47.870;16.058;2022-07-29T05:19:37;5.03;;;4.50;;
49514;SDS011;35415;47.870;16.058;2022-07-29T05:22:06;7.22;;;4.70;;
49514;SDS011;35415;47.870;16.058;2022-07-29T05:24:33;5.00;;;4.50;;
49514;SDS011;35415;47.870;16.058;2022-07-29T05:27:00;8.90;;;5.07;;
49514;SDS011;35415;47.870;16.058;2022-07-29T05:29:27;6.20;;;4.45;;
49514;SDS011;35415;47.870;16.058;2022-07-29T05:31:54;5.45;;;4.70;;
49514;SDS011;35415;47.870;16.058;2022-07-29T05:34:21;5.20;;;4.65;;
49514;SDS011;35415;47.870;16.058;2022-07-29T05:36:49;6.22;;;4.82;;
49514;SDS011;35415;47.870;16.058;2022-07-29T05:39:18;7.05;;;4.70;;
49514;SDS011;35415;47.870;16.058;2022-07-29T05:41:45;6.05;;;5.30;;
49514;SDS011;35415;47.870;16.058;2022-07-29T05:44:12;6.68;;;4.68;;
49514;SDS011;35415;47.870;16.058;2022-07-29T05:46:39;6.32;;;4.70;;
49514;SDS011;35415;47.870;16.058;2022-07-29T05:49:07;6.03;;;4.72;;
49514;SDS011;35415;47.870;16.058;2022-07-29T05:51:34;5.13;;;4.63;;
49514;SDS011;35415;47.870;16.058;2022-07-29T05:54:02;6.18;;;5.18;;
49514;SDS011;35415;47.870;16.058;2022-07-29T05:56:30;5.10;;;4.60;;
49514;SDS011;35415;47.870;16.058;2022-07-29T05:58:57;8.50;;;4.70;;
49514;SDS011;35415;47.870;16.058;2022-07-29T06:01:24;11.05;;;4.93;;
49514;SDS011;35415;47.870;16.058;2022-07-29T06:03:52;5.85;;;5.00;;
49514;SDS011;35415;47.870;16.058;2022-07-29T06:06:19;6.90;;;5.18;;
49514;SDS011;35415;47.870;16.058;2022-07-29T06:08:46;5.38;;;4.88;;
49514;SDS011;35415;47.870;16.058;2022-07-29T06:11:13;4.93;;;4.43;;
49514;SDS011;35415;47.870;16.058;2022-07-29T06:13:41;5.15;;;4.50;;
49514;SDS011;35415;47.870;16.058;2022-07-29T06:16:09;5.32;;;4.82;;
49514;SDS011;35415;47.870;16.058;2022-07-29T06:18:36;4.97;;;4.47;;
49514;SDS011;35415;47.870;16.058;2022-07-29T06:21:06;5.50;;;4.82;;
49514;SDS011;35415;47.870;16.058;2022-07-29T06:23:35;6.00;;;4.97;;
49514;SDS011;35415;47.870;16.058;2022-07-29T06:26:02;5.75;;;5.07;;
49514;SDS011;35415;47.870;16.058;2022-07-29T06:28:30;5.22;;;4.75;;
49514;SDS011;35415;47.870;16.058;2022-07-29T06:30:58;6.43;;;4.30;;
49514;SDS011;35415;47.870;16.058;2022-07-29T06:33:25;5.63;;;5.10;;
49514;SDS011;35415;47.870;16.058;2022-07-29T06:35:52;5.65;;;4.70;;
49514;SDS011;35415;47.870;16.058;2022-07-29T06:38:20;8.23;;;4.70;;
49514;SDS011;35415;47.870;16.058;2022-07-29T06:40:47;6.13;;;4.55;;
49514;SDS011;35415;47.870;16.058;2022-07-29T06:43:27;5.00;;;4.55;;
49514;SDS011;35415;47.870;16.058;2022-07-29T06:45:58;7.55;;;4.88;;
49514;SDS011;35415;47.870;16.058;2022-07-29T06:48:27;5.10;;;4.55;;
49514;SDS011;35415;47.870;16.058;2022-07-29T06:50:55;5.88;;;4.82;;
49514;SDS011;35415;47.870;16.058;2022-07-29T06:53:22;4.50;;;4.10;;
49514;SDS011;35415;47.870;16.058;2022-07-29T06:55:49;8.35;;;4.55;;
49514;SDS011;35415;47.870;16.058;2022-07-29T06:58:16;5.68;;;4.57;;
49514;SDS011;35415;47.870;16.058;2022-07-29T07:00:45;6.78;;;4.55;;
49514;SDS011;35415;47.870;16.058;2022-07-29T07:03:14;5.68;;;4.30;;
49514;SDS011;35415;47.870;16.058;2022-07-29T07:05:42;5.22;;;4.72;;
49514;SDS011;35415;47.870;16.058;2022-07-29T07:08:10;5.35;;;4.50;;
49514;SDS011;35415;47.870;16.058;2022-07-29T07:10:37;5.38;;;4.88;;
49514;SDS011;35415;47.870;16.058;2022-07-29T07:13:04;8.60;;;4.78;;
49514;SDS011;35415;47.870;16.058;2022-07-29T07:15:32;6.40;;;5.15;;
49514;SDS011;35415;47.870;16.058;2022-07-29T07:17:59;5.72;;;4.90;;
49514;SDS011;35415;47.870;16.058;2022-07-29T07:20:27;5.35;;;4.85;;
49514;SDS011;35415;47.870;16.058;2022-07-29T07:22:54;6.88;;;5.05;;
49514;SDS011;35415;47.870;16.058;2022-07-29T07:25:21;4.43;;;4.03;;
49514;SDS011;35415;47.870;16.058;2022-07-29T07:27:48;7.45;;;4.80;;
49514;SDS011;35415;47.870;16.058;2022-07-29T07:30:15;6.97;;;4.70;;
49514;SDS011;35415;47.870;16.058;2022-07-29T07:32:42;7.85;;;4.85;;
49514;SDS011;35415;47.870;16.058;2022-07-29T07:35:09;5.70;;;4.05;;
49514;SDS011;35415;47.870;16.058;2022-07-29T07:37:39;5.63;;;4.32;;
49514;SDS011;35415;47.870;16.058;2022-07-29T07:40:07;8.82;;;4.45;;
49514;SDS011;35415;47.870;16.058;2022-07-29T07:42:36;7.30;;;4.20;;
49514;SDS011;35415;47.870;16.058;2022-07-29T07:45:03;8.07;;;4.63;;
49514;SDS011;35415;47.870;16.058;2022-07-29T07:47:31;4.68;;;3.92;;
49514;SDS011;35415;47.870;16.058;2022-07-29T07:49:58;8.23;;;4.50;;
49514;SDS011;35415;47.870;16.058;2022-07-29T07:52:26;5.85;;;4.35;;
49514;SDS011;35415;47.870;16.058;2022-07-29T07:54:55;8.73;;;5.05;;
49514;SDS011;35415;47.870;16.058;2022-07-29T07:57:23;8.68;;;4.90;;
49514;SDS011;35415;47.870;16.058;2022-07-29T07:59:50;5.40;;;4.10;;
49514;SDS011;35415;47.870;16.058;2022-07-29T08:02:17;4.80;;;4.20;;
49514;SDS011;35415;47.870;16.058;2022-07-29T08:04:44;6.90;;;4.35;;
49514;SDS011;35415;47.870;16.058;2022-07-29T08:07:10;6.13;;;4.18;;
49514;SDS011;35415;47.870;16.058;2022-07-29T08:09:40;6.78;;;4.32;;
49514;SDS011;35415;47.870;16.058;2022-07-29T08:12:09;5.80;;;4.22;;
49514;SDS011;35415;47.870;16.058;2022-07-29T08:14:36;4.55;;;4.15;;
49514;SDS011;35415;47.870;16.058;2022-07-29T08:17:03;12.50;;;5.10;;
49514;SDS011;35415;47.870;16.058;2022-07-29T08:19:30;7.18;;;4.80;;
49514;SDS011;35415;47.870;16.058;2022-07-29T08:21:57;5.13;;;4.57;;
49514;SDS011;35415;47.870;16.058;2022-07-29T08:24:24;6.40;;;4.90;;
49514;SDS011;35415;47.870;16.058;2022-07-29T08:27:12;16.83;;;5.00;;
49514;SDS011;35415;47.870;16.058;2022-07-29T08:29:40;5.30;;;4.80;;
49514;SDS011;35415;47.870;16.058;2022-07-29T08:32:07;5.25;;;4.53;;
49514;SDS011;35415;47.870;16.058;2022-07-29T08:34:34;8.73;;;4.28;;
49514;SDS011;35415;47.870;16.058;2022-07-29T08:37:01;5.95;;;4.90;;
49514;SDS011;35415;47.870;16.058;2022-07-29T08:39:28;5.30;;;4.38;;
49514;SDS011;35415;47.870;16.058;2022-07-29T08:41:55;5.40;;;4.57;;
49514;SDS011;35415;47.870;16.058;2022-07-29T08:44:23;8.63;;;5.22;;
49514;SDS011;35415;47.870;16.058;2022-07-29T08:46:52;7.97;;;4.25;;
49514;SDS011;35415;47.870;16.058;2022-07-29T08:49:19;4.63;;;4.22;;
49514;SDS011;35415;47.870;16.058;2022-07-29T08:51:46;5.93;;;4.40;;
49514;SDS011;35415;47.870;16.058;2022-07-29T08:54:16;5.40;;;4.25;;
49514;SDS011;35415;47.870;16.058;2022-07-29T08:56:44;4.45;;;4.05;;
49514;SDS011;35415;47.870;16.058;2022-07-29T08:59:15;6.10;;;4.53;;
49514;SDS011;35415;47.870;16.058;2022-07-29T09:01:47;6.38;;;4.43;;
49514;SDS011;35415;47.870;16.058;2022-07-29T09:04:15;7.53;;;3.88;;
49514;SDS011;35415;47.870;16.058;2022-07-29T09:06:46;6.10;;;3.83;;
49514;SDS011;35415;47.870;16.058;2022-07-29T09:09:15;4.97;;;4.32;;
49514;SDS011;35415;47.870;16.058;2022-07-29T09:11:44;5.43;;;3.83;;
49514;SDS011;35415;47.870;16.058;2022-07-29T09:14:13;5.03;;;3.90;;
49514;SDS011;35415;47.870;16.058;2022-07-29T09:16:50;8.40;;;4.07;;
49514;SDS011;35415;47.870;16.058;2022-07-29T09:19:20;4.50;;;4.10;;
49514;SDS011;35415;47.870;16.058;2022-07-29T09:21:59;7.45;;;3.67;;
49514;SDS011;35415;47.870;16.058;2022-07-29T09:24:35;6.10;;;4.18;;
49514;SDS011;35415;47.870;16.058;2022-07-29T09:27:17;8.45;;;4.18;;
49514;SDS011;35415;47.870;16.058;2022-07-29T09:29:46;6.43;;;3.60;;
49514;SDS011;35415;47.870;16.058;2022-07-29T09:32:17;7.97;;;3.80;;
49514;SDS011;35415;47.870;16.058;2022-07-29T09:34:45;6.50;;;3.35;;
49514;SDS011;35415;47.870;16.058;2022-07-29T09:37:12;4.97;;;3.63;;
49514;SDS011;35415;47.870;16.058;2022-07-29T09:39:53;6.10;;;4.10;;
49514;SDS011;35415;47.870;16.058;2022-07-29T09:42:27;5.97;;;3.60;;
49514;SDS011;35415;47.870;16.058;2022-07-29T09:44:57;5.07;;;3.65;;
49514;SDS011;35415;47.870;16.058;2022-07-29T09:47:40;5.53;;;3.72;;
49514;SDS011;35415;47.870;16.058;2022-07-29T09:50:10;5.07;;;3.80;;
49514;SDS011;35415;47.870;16.058;2022-07-29T09:52:44;5.80;;;4.10;;
49514;SDS011;35415;47.870;16.058;2022-07-29T09:55:17;6.63;;;3.55;;
49514;SDS011;35415;47.870;16.058;2022-07-29T09:57:46;6.90;;;3.75;;
49514;SDS011;35415;47.870;16.058;2022-07-29T10:00:15;3.50;;;3.20;;
49514;SDS011;35415;47.870;16.058;2022-07-29T10:02:46;6.05;;;4.10;;
49514;SDS011;35415;47.870;16.058;2022-07-29T10:05:17;4.82;;;4.15;;
49514;SDS011;35415;47.870;16.058;2022-07-29T10:07:50;3.80;;;3.45;;
49514;SDS011;35415;47.870;16.058;2022-07-29T10:10:22;6.25;;;4.13;;
49514;SDS011;35415;47.870;16.058;2022-07-29T10:12:52;4.32;;;3.63;;
49514;SDS011;35415;47.870;16.058;2022-07-29T10:15:23;3.72;;;3.40;;
49514;SDS011;35415;47.870;16.058;2022-07-29T10:17:56;7.97;;;3.63;;
49514;SDS011;35415;47.870;16.058;2022-07-29T10:20:23;3.85;;;3.45;;
49514;SDS011;35415;47.870;16.058;2022-07-29T10:22:53;4.57;;;3.30;;
49514;SDS011;35415;47.870;16.058;2022-07-29T10:25:29;8.43;;;3.47;;
49514;SDS011;35415;47.870;16.058;2022-07-29T10:28:05;4.57;;;3.35;;
49514;SDS011;35415;47.870;16.058;2022-07-29T10:30:33;4.28;;;3.88;;
49514;SDS011;35415;47.870;16.058;2022-07-29T10:33:10;4.82;;;4.32;;
49514;SDS011;35415;47.870;16.058;2022-07-29T10:35:56;4.32;;;3.75;;
49514;SDS011;35415;47.870;16.058;2022-07-29T10:38:45;4.68;;;3.55;;
49514;SDS011;35415;47.870;16.058;2022-07-29T10:41:34;6.95;;;3.63;;
49514;SDS011;35415;47.870;16.058;2022-07-29T10:44:13;3.67;;;3.40;;
49514;SDS011;35415;47.870;16.058;2022-07-29T10:46:51;4.37;;;3.60;;
49514;SDS011;35415;47.870;16.058;2022-07-29T10:49:22;5.13;;;3.83;;
49514;SDS011;35415;47.870;16.058;2022-07-29T10:52:05;4.78;;;3.58;;
49514;SDS011;35415;47.870;16.058;2022-07-29T10:57:16;4.20;;;3.85;;
49514;SDS011;35415;47.870;16.058;2022-07-29T10:59:48;5.45;;;3.70;;
49514;SDS011;35415;47.870;16.058;2022-07-29T11:02:43;6.03;;;4.47;;
49514;SDS011;35415;47.870;16.058;2022-07-29T11:05:15;4.97;;;3.70;;
49514;SDS011;35415;47.870;16.058;2022-07-29T11:10:51;4.07;;;3.70;;
49514;SDS011;35415;47.870;16.058;2022-07-29T11:13:47;5.93;;;4.15;;
49514;SDS011;35415;47.870;16.058;2022-07-29T11:16:17;4.45;;;4.00;;
49514;SDS011;35415;47.870;16.058;2022-07-29T11:21:48;5.43;;;4.00;;
49514;SDS011;35415;47.870;16.058;2022-07-29T11:24:18;4.88;;;3.83;;
49514;SDS011;35415;47.870;16.058;2022-07-29T11:29:35;5.72;;;3.90;;
49514;SDS011;35415;47.870;16.058;2022-07-29T11:32:10;4.40;;;4.00;;
49514;SDS011;35415;47.870;16.058;2022-07-29T11:34:39;4.88;;;3.95;;
49514;SDS011;35415;47.870;16.058;2022-07-29T11:37:16;5.45;;;4.50;;
49514;SDS011;35415;47.870;16.058;2022-07-29T11:42:43;4.57;;;4.10;;
49514;SDS011;35415;47.870;16.058;2022-07-29T11:45:14;4.25;;;3.85;;
49514;SDS011;35415;47.870;16.058;2022-07-29T11:47:58;4.55;;;4.15;;
49514;SDS011;35415;47.870;16.058;2022-07-29T11:50:27;6.63;;;4.88;;
49514;SDS011;35415;47.870;16.058;2022-07-29T11:52:59;6.22;;;4.78;;
49514;SDS011;35415;47.870;16.058;2022-07-29T11:55:27;5.43;;;4.85;;
49514;SDS011;35415;47.870;16.058;2022-07-29T11:57:58;7.93;;;4.22;;
49514;SDS011;35415;47.870;16.058;2022-07-29T12:00:28;4.85;;;3.97;;
49514;SDS011;35415;47.870;16.058;2022-07-29T12:03:00;5.13;;;4.13;;
49514;SDS011;35415;47.870;16.058;2022-07-29T12:05:42;9.57;;;3.95;;
49514;SDS011;35415;47.870;16.058;2022-07-29T12:08:16;8.30;;;4.47;;
49514;SDS011;35415;47.870;16.058;2022-07-29T12:10:47;4.72;;;4.32;;
49514;SDS011;35415;47.870;16.058;2022-07-29T12:13:16;4.25;;;3.85;;
49514;SDS011;35415;47.870;16.058;2022-07-29T12:15:51;5.10;;;4.55;;
49514;SDS011;35415;47.870;16.058;2022-07-29T12:18:20;5.10;;;4.38;;
49514;SDS011;35415;47.870;16.058;2022-07-29T12:20:48;8.43;;;5.72;;
49514;SDS011;35415;47.870;16.058;2022-07-29T12:23:25;5.05;;;4.53;;
49514;SDS011;35415;47.870;16.058;2022-07-29T12:25:53;8.63;;;4.97;;
49514;SDS011;35415;47.870;16.058;2022-07-29T12:28:21;7.63;;;4.80;;
49514;SDS011;35415;47.870;16.058;2022-07-29T12:30:49;7.30;;;5.38;;
49514;SDS011;35415;47.870;16.058;2022-07-29T12:33:20;10.32;;;4.90;;
49514;SDS011;35415;47.870;16.058;2022-07-29T12:35:49;8.25;;;4.80;;
49514;SDS011;35415;47.870;16.058;2022-07-29T12:38:18;6.43;;;4.90;;
49514;SDS011;35415;47.870;16.058;2022-07-29T12:40:50;9.82;;;5.20;;
49514;SDS011;35415;47.870;16.058;2022-07-29T12:43:21;13.55;;;5.45;;
49514;SDS011;35415;47.870;16.058;2022-07-29T12:45:50;6.85;;;5.10;;
49514;SDS011;35415;47.870;16.058;2022-07-29T12:48:32;5.70;;;5.15;;
49514;SDS011;35415;47.870;16.058;2022-07-29T12:51:00;7.90;;;4.80;;
49514;SDS011;35415;47.870;16.058;2022-07-29T12:53:29;5.60;;;5.00;;
49514;SDS011;35415;47.870;16.058;2022-07-29T12:55:58;5.85;;;4.80;;
49514;SDS011;35415;47.870;16.058;2022-07-29T12:58:29;7.30;;;4.60;;
49514;SDS011;35415;47.870;16.058;2022-07-29T13:01:03;10.75;;;5.15;;
49514;SDS011;35415;47.870;16.058;2022-07-29T13:03:43;6.07;;;5.30;;
49514;SDS011;35415;47.870;16.058;2022-07-29T13:06:32;5.55;;;4.75;;
49514;SDS011;35415;47.870;16.058;2022-07-29T13:09:06;6.68;;;5.07;;
49514;SDS011;35415;47.870;16.058;2022-07-29T13:11:37;7.32;;;5.40;;
49514;SDS011;35415;47.870;16.058;2022-07-29T13:14:06;9.25;;;4.97;;
49514;SDS011;35415;47.870;16.058;2022-07-29T13:16:35;8.05;;;5.22;;
49514;SDS011;35415;47.870;16.058;2022-07-29T13:19:05;8.57;;;5.35;;
49514;SDS011;35415;47.870;16.058;2022-07-29T13:21:34;5.60;;;4.82;;
49514;SDS011;35415;47.870;16.058;2022-07-29T13:24:02;6.47;;;4.72;;
49514;SDS011;35415;47.870;16.058;2022-07-29T13:26:29;4.85;;;3.80;;
49514;SDS011;35415;47.870;16.058;2022-07-29T13:28:58;4.90;;;3.47;;
49514;SDS011;35415;47.870;16.058;2022-07-29T13:31:25;3.45;;;2.65;;
49514;SDS011;35415;47.870;16.058;2022-07-29T13:33:53;4.20;;;3.00;;
49514;SDS011;35415;47.870;16.058;2022-07-29T13:36:22;3.05;;;2.33;;
49514;SDS011;35415;47.870;16.058;2022-07-29T13:38:52;6.20;;;3.00;;
49514;SDS011;35415;47.870;16.058;2022-07-29T13:41:25;3.42;;;2.83;;
49514;SDS011;35415;47.870;16.058;2022-07-29T13:44:02;3.25;;;2.38;;
49514;SDS011;35415;47.870;16.058;2022-07-29T13:47:10;2.50;;;2.25;;
49514;SDS011;35415;47.870;16.058;2022-07-29T13:50:31;2.97;;;2.72;;
49514;SDS011;35415;47.870;16.058;2022-07-29T13:53:05;4.25;;;2.30;;
49514;SDS011;35415;47.870;16.058;2022-07-29T13:55:41;6.88;;;3.40;;
49514;SDS011;35415;47.870;16.058;2022-07-29T14:01:17;4.88;;;2.90;;
49514;SDS011;35415;47.870;16.058;2022-07-29T14:04:53;2.28;;;2.00;;
49514;SDS011;35415;47.870;16.058;2022-07-29T14:07:20;2.92;;;2.05;;
49514;SDS011;35415;47.870;16.058;2022-07-29T14:10:00;3.03;;;2.17;;
49514;SDS011;35415;47.870;16.058;2022-07-29T14:12:34;1.85;;;1.70;;
49514;SDS011;35415;47.870;16.058;2022-07-29T14:15:38;2.50;;;1.80;;
49514;SDS011;35415;47.870;16.058;2022-07-29T14:18:13;3.13;;;2.35;;
49514;SDS011;35415;47.870;16.058;2022-07-29T14:20:42;4.97;;;1.92;;
49514;SDS011;35415;47.870;16.058;2022-07-29T14:23:29;2.38;;;2.10;;
49514;SDS011;35415;47.870;16.058;2022-07-29T14:26:08;2.97;;;2.45;;
49514;SDS011;35415;47.870;16.058;2022-07-29T14:28:48;5.13;;;2.55;;
49514;SDS011;35415;47.870;16.058;2022-07-29T14:31:16;3.95;;;2.58;;
49514;SDS011;35415;47.870;16.058;2022-07-29T14:34:02;2.50;;;2.20;;
49514;SDS011;35415;47.870;16.058;2022-07-29T14:36:50;3.65;;;2.60;;
49514;SDS011;35415;47.870;16.058;2022-07-29T14:39:51;6.32;;;2.47;;
49514;SDS011;35415;47.870;16.058;2022-07-29T14:42:47;3.85;;;2.30;;
49514;SDS011;35415;47.870;16.058;2022-07-29T14:45:17;4.30;;;2.50;;
49514;SDS011;35415;47.870;16.058;2022-07-29T14:47:49;2.75;;;2.10;;
49514;SDS011;35415;47.870;16.058;2022-07-29T14:50:23;4.53;;;1.88;;
49514;SDS011;35415;47.870;16.058;2022-07-29T14:53:14;3.50;;;2.42;;
49514;SDS011;35415;47.870;16.058;2022-07-29T15:01:44;2.78;;;2.25;;
49514;SDS011;35415;47.870;16.058;2022-07-29T15:04:22;3.28;;;2.50;;
49514;SDS011;35415;47.870;16.058;2022-07-29T15:07:20;2.75;;;2.30;;
49514;SDS011;35415;47.870;16.058;2022-07-29T15:17:01;2.85;;;2.50;;
49514;SDS011;35415;47.870;16.058;2022-07-29T15:19:58;3.00;;;2.40;;
49514;SDS011;35415;47.870;16.058;2022-07-29T15:26:09;4.05;;;2.45;;
49514;SDS011;35415;47.870;16.058;2022-07-29T15:28:53;4.13;;;2.90;;
49514;SDS011;35415;47.870;16.058;2022-07-29T15:31:35;4.88;;;2.70;;
49514;SDS011;35415;47.870;16.058;2022-07-29T15:34:50;3.47;;;2.75;;